In Rescue
 
Open Full Screen Window  High Contrast Mode
Wind Gusting 00 knots
05
September 19, 2019 4:18 PM CDT
Weather Information
Wind Direction
  120 °
Wind Speed
  05 kt (6 mph)
Wind Gust
  00 kt (0 mph)
Altimeter
29.98 in
Visibility
10 SM
Temperature
28° C
82° F
Dewpoint
16° C
61° F
Humidity
48%
1hr Rain Fall
00.00 in.
24hr Rain Fall
00.00 in.
Sky Condition
Clear
VFR

METAR KGDB 192118Z AUTO 12005KT 10SM CLR 28/16 A2998 RMK AO2 T02840164

FAA Disclaimer: The data displayed is for advisory purposes only and is not to be used for flight planning or operations.